sensor_id;sensor_type;location;lat;lon;timestamp;temperature;humidity
20481;DHT22;10399;50.754;3.366;2022-08-14T00:02:00;25.30;78.80
20481;DHT22;10399;50.754;3.366;2022-08-14T00:04:33;25.30;79.10
20481;DHT22;10399;50.754;3.366;2022-08-14T00:07:12;25.30;79.30
20481;DHT22;10399;50.754;3.366;2022-08-14T00:09:43;25.40;79.50
20481;DHT22;10399;50.754;3.366;2022-08-14T00:12:32;25.20;79.50
20481;DHT22;10399;50.754;3.366;2022-08-14T00:17:41;25.20;79.90
20481;DHT22;10399;50.754;3.366;2022-08-14T00:20:22;25.10;80.10
20481;DHT22;10399;50.754;3.366;2022-08-14T00:23:01;25.10;80.30
20481;DHT22;10399;50.754;3.366;2022-08-14T00:25:40;25.10;80.70
20481;DHT22;10399;50.754;3.366;2022-08-14T00:28:12;25.00;80.60
20481;DHT22;10399;50.754;3.366;2022-08-14T00:30:44;25.00;80.80
20481;DHT22;10399;50.754;3.366;2022-08-14T00:33:11;24.90;80.90
20481;DHT22;10399;50.754;3.366;2022-08-14T00:35:43;24.90;81.30
20481;DHT22;10399;50.754;3.366;2022-08-14T00:38:30;24.80;81.40
20481;DHT22;10399;50.754;3.366;2022-08-14T00:41:01;24.80;82.00
20481;DHT22;10399;50.754;3.366;2022-08-14T00:43:28;24.70;82.40
20481;DHT22;10399;50.754;3.366;2022-08-14T00:46:05;24.70;82.50
20481;DHT22;10399;50.754;3.366;2022-08-14T00:48:35;24.60;82.70
20481;DHT22;10399;50.754;3.366;2022-08-14T00:51:07;24.60;82.80
20481;DHT22;10399;50.754;3.366;2022-08-14T00:53:36;24.50;83.10
20481;DHT22;10399;50.754;3.366;2022-08-14T00:56:05;24.50;83.20
20481;DHT22;10399;50.754;3.366;2022-08-14T00:58:35;24.50;83.20
20481;DHT22;10399;50.754;3.366;2022-08-14T01:01:11;24.60;83.10
20481;DHT22;10399;50.754;3.366;2022-08-14T01:03:43;24.60;83.40
20481;DHT22;10399;50.754;3.366;2022-08-14T01:06:12;24.60;83.60
20481;DHT22;10399;50.754;3.366;2022-08-14T01:08:44;24.40;83.70
20481;DHT22;10399;50.754;3.366;2022-08-14T01:11:24;24.50;83.50
20481;DHT22;10399;50.754;3.366;2022-08-14T01:14:02;24.40;83.90
20481;DHT22;10399;50.754;3.366;2022-08-14T01:16:49;24.40;83.80
20481;DHT22;10399;50.754;3.366;2022-08-14T01:19:19;24.40;83.90
20481;DHT22;10399;50.754;3.366;2022-08-14T01:22:08;24.20;84.40
20481;DHT22;10399;50.754;3.366;2022-08-14T01:24:40;24.20;84.60
20481;DHT22;10399;50.754;3.366;2022-08-14T01:27:20;24.10;84.80
20481;DHT22;10399;50.754;3.366;2022-08-14T01:29:52;24.10;84.90
20481;DHT22;10399;50.754;3.366;2022-08-14T01:32:31;24.00;85.10
20481;DHT22;10399;50.754;3.366;2022-08-14T01:35:04;24.00;85.60
20481;DHT22;10399;50.754;3.366;2022-08-14T01:37:53;24.00;85.80
20481;DHT22;10399;50.754;3.366;2022-08-14T01:40:27;24.00;86.30
20481;DHT22;10399;50.754;3.366;2022-08-14T01:43:13;23.90;86.60
20481;DHT22;10399;50.754;3.366;2022-08-14T01:45:48;23.80;87.40
20481;DHT22;10399;50.754;3.366;2022-08-14T01:48:33;23.70;87.50
20481;DHT22;10399;50.754;3.366;2022-08-14T01:51:05;23.70;88.10
20481;DHT22;10399;50.754;3.366;2022-08-14T01:53:50;23.60;88.50
20481;DHT22;10399;50.754;3.366;2022-08-14T01:56:23;23.50;89.30
20481;DHT22;10399;50.754;3.366;2022-08-14T01:59:07;23.40;89.60
20481;DHT22;10399;50.754;3.366;2022-08-14T02:01:36;23.30;90.20
20481;DHT22;10399;50.754;3.366;2022-08-14T02:04:08;23.30;90.30
20481;DHT22;10399;50.754;3.366;2022-08-14T02:06:55;23.20;90.60
20481;DHT22;10399;50.754;3.366;2022-08-14T02:09:23;23.20;90.80
20481;DHT22;10399;50.754;3.366;2022-08-14T02:11:51;23.10;91.00
20481;DHT22;10399;50.754;3.366;2022-08-14T02:14:21;23.20;91.10
20481;DHT22;10399;50.754;3.366;2022-08-14T02:16:58;23.30;91.20
20481;DHT22;10399;50.754;3.366;2022-08-14T02:19:29;23.30;91.70
20481;DHT22;10399;50.754;3.366;2022-08-14T02:21:58;23.30;91.50
20481;DHT22;10399;50.754;3.366;2022-08-14T02:24:29;23.20;91.60
20481;DHT22;10399;50.754;3.366;2022-08-14T02:27:07;22.90;92.20
20481;DHT22;10399;50.754;3.366;2022-08-14T02:29:55;22.90;92.70
20481;DHT22;10399;50.754;3.366;2022-08-14T02:32:29;22.80;93.30
20481;DHT22;10399;50.754;3.366;2022-08-14T02:35:08;22.80;93.60
20481;DHT22;10399;50.754;3.366;2022-08-14T02:37:39;22.80;94.00
20481;DHT22;10399;50.754;3.366;2022-08-14T02:40:18;22.80;94.30
20481;DHT22;10399;50.754;3.366;2022-08-14T02:42:58;22.60;94.70
20481;DHT22;10399;50.754;3.366;2022-08-14T02:45:28;22.60;95.00
20481;DHT22;10399;50.754;3.366;2022-08-14T02:48:12;22.60;95.40
20481;DHT22;10399;50.754;3.366;2022-08-14T02:50:59;22.60;95.70
20481;DHT22;10399;50.754;3.366;2022-08-14T02:53:29;22.60;95.80
20481;DHT22;10399;50.754;3.366;2022-08-14T02:55:58;22.60;96.20
20481;DHT22;10399;50.754;3.366;2022-08-14T02:58:30;22.50;96.90
20481;DHT22;10399;50.754;3.366;2022-08-14T03:00:59;22.40;97.30
20481;DHT22;10399;50.754;3.366;2022-08-14T03:03:27;22.40;97.50
20481;DHT22;10399;50.754;3.366;2022-08-14T03:05:58;22.40;98.00
20481;DHT22;10399;50.754;3.366;2022-08-14T03:08:26;22.40;98.50
20481;DHT22;10399;50.754;3.366;2022-08-14T03:11:01;22.40;98.90
20481;DHT22;10399;50.754;3.366;2022-08-14T03:13:33;22.40;99.30
20481;DHT22;10399;50.754;3.366;2022-08-14T03:16:03;22.30;99.60
20481;DHT22;10399;50.754;3.366;2022-08-14T03:18:37;22.30;99.90
20481;DHT22;10399;50.754;3.366;2022-08-14T03:21:13;22.30;99.90
20481;DHT22;10399;50.754;3.366;2022-08-14T03:23:42;22.30;99.90
20481;DHT22;10399;50.754;3.366;2022-08-14T03:26:15;22.30;99.90
20481;DHT22;10399;50.754;3.366;2022-08-14T03:28:55;22.30;99.90
20481;DHT22;10399;50.754;3.366;2022-08-14T03:31:27;22.20;99.90
20481;DHT22;10399;50.754;3.366;2022-08-14T03:33:56;22.20;99.90
20481;DHT22;10399;50.754;3.366;2022-08-14T03:36:25;22.20;99.90
20481;DHT22;10399;50.754;3.366;2022-08-14T03:39:12;22.20;99.90
20481;DHT22;10399;50.754;3.366;2022-08-14T03:41:49;22.10;99.90
20481;DHT22;10399;50.754;3.366;2022-08-14T03:44:16;22.10;99.90
20481;DHT22;10399;50.754;3.366;2022-08-14T03:47:03;22.10;99.90
20481;DHT22;10399;50.754;3.366;2022-08-14T03:49:30;22.00;99.90
20481;DHT22;10399;50.754;3.366;2022-08-14T03:51:59;21.90;99.90
20481;DHT22;10399;50.754;3.366;2022-08-14T03:54:44;22.00;99.90
20481;DHT22;10399;50.754;3.366;2022-08-14T03:57:18;21.90;99.90
20481;DHT22;10399;50.754;3.366;2022-08-14T03:59:49;22.00;99.90
20481;DHT22;10399;50.754;3.366;2022-08-14T04:02:16;21.90;99.90
20481;DHT22;10399;50.754;3.366;2022-08-14T04:05:07;21.90;99.90
20481;DHT22;10399;50.754;3.366;2022-08-14T04:07:39;21.80;99.90
20481;DHT22;10399;50.754;3.366;2022-08-14T04:10:16;21.90;99.90
20481;DHT22;10399;50.754;3.366;2022-08-14T04:12:57;21.80;99.90
20481;DHT22;10399;50.754;3.366;2022-08-14T04:15:29;21.80;99.90
20481;DHT22;10399;50.754;3.366;2022-08-14T04:17:56;21.80;99.90
20481;DHT22;10399;50.754;3.366;2022-08-14T04:20:26;21.80;99.90
20481;DHT22;10399;50.754;3.366;2022-08-14T04:22:54;21.80;99.90
20481;DHT22;10399;50.754;3.366;2022-08-14T04:25:21;21.70;99.90
20481;DHT22;10399;50.754;3.366;2022-08-14T04:27:49;21.80;99.90
20481;DHT22;10399;50.754;3.366;2022-08-14T04:30:29;21.80;99.90
20481;DHT22;10399;50.754;3.366;2022-08-14T04:32:59;21.70;99.90
20481;DHT22;10399;50.754;3.366;2022-08-14T04:35:39;21.90;99.90
20481;DHT22;10399;50.754;3.366;2022-08-14T04:38:22;21.90;99.90
20481;DHT22;10399;50.754;3.366;2022-08-14T04:41:08;21.90;99.90
20481;DHT22;10399;50.754;3.366;2022-08-14T04:43:56;21.80;99.90
20481;DHT22;10399;50.754;3.366;2022-08-14T04:46:23;21.90;99.90
20481;DHT22;10399;50.754;3.366;2022-08-14T04:49:11;21.80;99.90
20481;DHT22;10399;50.754;3.366;2022-08-14T04:51:41;21.80;99.90
20481;DHT22;10399;50.754;3.366;2022-08-14T04:54:22;21.90;99.90
20481;DHT22;10399;50.754;3.366;2022-08-14T04:56:50;21.70;99.90
20481;DHT22;10399;50.754;3.366;2022-08-14T04:59:20;21.70;99.90
20481;DHT22;10399;50.754;3.366;2022-08-14T05:01:48;21.60;99.90
20481;DHT22;10399;50.754;3.366;2022-08-14T05:04:22;21.60;99.90
20481;DHT22;10399;50.754;3.366;2022-08-14T05:06:52;21.70;99.90
20481;DHT22;10399;50.754;3.366;2022-08-14T05:09:24;21.50;99.90
20481;DHT22;10399;50.754;3.366;2022-08-14T05:11:56;21.50;99.90
20481;DHT22;10399;50.754;3.366;2022-08-14T05:14:43;21.50;99.90
20481;DHT22;10399;50.754;3.366;2022-08-14T05:17:21;21.50;99.90
20481;DHT22;10399;50.754;3.366;2022-08-14T05:20:09;21.50;99.90
20481;DHT22;10399;50.754;3.366;2022-08-14T05:22:57;21.50;99.90
20481;DHT22;10399;50.754;3.366;2022-08-14T05:25:26;21.50;99.90
20481;DHT22;10399;50.754;3.366;2022-08-14T05:28:27;21.50;99.90
20481;DHT22;10399;50.754;3.366;2022-08-14T05:30:56;21.60;99.90
20481;DHT22;10399;50.754;3.366;2022-08-14T05:33:25;21.60;99.90
20481;DHT22;10399;50.754;3.366;2022-08-14T05:35:58;22.00;99.90
20481;DHT22;10399;50.754;3.366;2022-08-14T05:38:30;22.00;99.90
20481;DHT22;10399;50.754;3.366;2022-08-14T05:41:02;22.10;99.90
20481;DHT22;10399;50.754;3.366;2022-08-14T05:43:35;22.20;99.90
20481;DHT22;10399;50.754;3.366;2022-08-14T05:46:11;22.30;99.90
20481;DHT22;10399;50.754;3.366;2022-08-14T05:48:41;22.40;99.90
20481;DHT22;10399;50.754;3.366;2022-08-14T05:51:09;22.40;99.90
20481;DHT22;10399;50.754;3.366;2022-08-14T05:53:38;22.50;99.90
20481;DHT22;10399;50.754;3.366;2022-08-14T05:56:08;22.70;99.90
20481;DHT22;10399;50.754;3.366;2022-08-14T05:58:35;22.70;99.90
20481;DHT22;10399;50.754;3.366;2022-08-14T06:01:07;22.90;99.90
20481;DHT22;10399;50.754;3.366;2022-08-14T06:03:35;23.00;99.90
20481;DHT22;10399;50.754;3.366;2022-08-14T06:06:06;23.20;99.90
20481;DHT22;10399;50.754;3.366;2022-08-14T06:08:33;23.30;99.90
20481;DHT22;10399;50.754;3.366;2022-08-14T06:11:07;23.30;99.90
20481;DHT22;10399;50.754;3.366;2022-08-14T06:13:40;23.40;99.90
20481;DHT22;10399;50.754;3.366;2022-08-14T06:16:14;23.50;99.90
20481;DHT22;10399;50.754;3.366;2022-08-14T06:18:48;23.70;99.90
20481;DHT22;10399;50.754;3.366;2022-08-14T06:21:22;23.80;99.90
20481;DHT22;10399;50.754;3.366;2022-08-14T06:23:49;23.90;99.90
20481;DHT22;10399;50.754;3.366;2022-08-14T06:26:17;24.00;99.90
20481;DHT22;10399;50.754;3.366;2022-08-14T06:28:48;24.00;99.80
20481;DHT22;10399;50.754;3.366;2022-08-14T06:31:19;24.20;99.60
20481;DHT22;10399;50.754;3.366;2022-08-14T06:33:47;24.20;99.20
20481;DHT22;10399;50.754;3.366;2022-08-14T06:36:34;24.40;99.10
20481;DHT22;10399;50.754;3.366;2022-08-14T06:39:05;24.60;99.20
20481;DHT22;10399;50.754;3.366;2022-08-14T06:41:35;24.70;98.60
20481;DHT22;10399;50.754;3.366;2022-08-14T06:44:22;24.70;97.90
20481;DHT22;10399;50.754;3.366;2022-08-14T06:46:59;24.80;97.50
20481;DHT22;10399;50.754;3.366;2022-08-14T06:49:27;24.80;97.40
20481;DHT22;10399;50.754;3.366;2022-08-14T06:51:56;25.00;97.90
20481;DHT22;10399;50.754;3.366;2022-08-14T06:54:22;25.20;97.30
20481;DHT22;10399;50.754;3.366;2022-08-14T06:56:57;25.30;97.40
20481;DHT22;10399;50.754;3.366;2022-08-14T06:59:24;25.40;97.60
20481;DHT22;10399;50.754;3.366;2022-08-14T07:01:51;25.40;96.70
20481;DHT22;10399;50.754;3.366;2022-08-14T07:04:43;25.60;95.90
20481;DHT22;10399;50.754;3.366;2022-08-14T07:07:38;25.60;96.50
20481;DHT22;10399;50.754;3.366;2022-08-14T07:10:07;25.80;96.00
20481;DHT22;10399;50.754;3.366;2022-08-14T07:12:43;26.00;95.90
20481;DHT22;10399;50.754;3.366;2022-08-14T07:15:30;26.20;94.70
20481;DHT22;10399;50.754;3.366;2022-08-14T07:17:58;26.40;95.00
20481;DHT22;10399;50.754;3.366;2022-08-14T07:20:26;26.30;93.60
20481;DHT22;10399;50.754;3.366;2022-08-14T07:23:02;26.40;94.10
20481;DHT22;10399;50.754;3.366;2022-08-14T07:25:35;26.40;93.90
20481;DHT22;10399;50.754;3.366;2022-08-14T07:28:38;26.60;93.50
20481;DHT22;10399;50.754;3.366;2022-08-14T07:31:10;26.80;93.00
20481;DHT22;10399;50.754;3.366;2022-08-14T07:33:44;26.80;93.00
20481;DHT22;10399;50.754;3.366;2022-08-14T07:36:17;26.90;93.60
20481;DHT22;10399;50.754;3.366;2022-08-14T07:38:55;26.90;93.90
20481;DHT22;10399;50.754;3.366;2022-08-14T07:41:22;27.10;92.30
20481;DHT22;10399;50.754;3.366;2022-08-14T07:43:49;27.10;92.40
20481;DHT22;10399;50.754;3.366;2022-08-14T07:46:22;27.30;92.60
20481;DHT22;10399;50.754;3.366;2022-08-14T07:48:55;27.20;92.60
20481;DHT22;10399;50.754;3.366;2022-08-14T07:51:23;27.10;92.30
20481;DHT22;10399;50.754;3.366;2022-08-14T07:53:51;27.00;92.60
20481;DHT22;10399;50.754;3.366;2022-08-14T07:56:23;27.10;92.90
20481;DHT22;10399;50.754;3.366;2022-08-14T07:59:12;27.30;93.10
20481;DHT22;10399;50.754;3.366;2022-08-14T08:01:44;27.10;93.10
20481;DHT22;10399;50.754;3.366;2022-08-14T08:04:22;27.10;93.40
20481;DHT22;10399;50.754;3.366;2022-08-14T08:06:53;27.20;93.90
20481;DHT22;10399;50.754;3.366;2022-08-14T08:09:25;27.20;94.10
20481;DHT22;10399;50.754;3.366;2022-08-14T08:12:01;27.40;94.00
20481;DHT22;10399;50.754;3.366;2022-08-14T08:14:35;27.50;94.40
20481;DHT22;10399;50.754;3.366;2022-08-14T08:17:23;27.60;93.70
20481;DHT22;10399;50.754;3.366;2022-08-14T08:19:50;27.70;93.30
20481;DHT22;10399;50.754;3.366;2022-08-14T08:22:18;27.80;93.60
20481;DHT22;10399;50.754;3.366;2022-08-14T08:24:47;27.80;92.50
20481;DHT22;10399;50.754;3.366;2022-08-14T08:27:17;27.80;92.10
20481;DHT22;10399;50.754;3.366;2022-08-14T08:29:47;27.90;92.00
20481;DHT22;10399;50.754;3.366;2022-08-14T08:32:17;27.90;91.70
20481;DHT22;10399;50.754;3.366;2022-08-14T08:34:45;27.90;91.80
20481;DHT22;10399;50.754;3.366;2022-08-14T08:37:13;28.00;91.80
20481;DHT22;10399;50.754;3.366;2022-08-14T08:39:46;27.90;92.00
20481;DHT22;10399;50.754;3.366;2022-08-14T08:42:30;28.10;92.70
20481;DHT22;10399;50.754;3.366;2022-08-14T08:45:14;28.10;92.50
20481;DHT22;10399;50.754;3.366;2022-08-14T08:47:43;28.20;91.90
20481;DHT22;10399;50.754;3.366;2022-08-14T08:50:38;28.40;92.50
20481;DHT22;10399;50.754;3.366;2022-08-14T08:53:09;28.80;92.30
20481;DHT22;10399;50.754;3.366;2022-08-14T08:55:42;29.30;91.20
20481;DHT22;10399;50.754;3.366;2022-08-14T08:58:20;29.40;91.20
20481;DHT22;10399;50.754;3.366;2022-08-14T09:00:56;29.60;90.50
20481;DHT22;10399;50.754;3.366;2022-08-14T09:03:26;29.70;88.50
20481;DHT22;10399;50.754;3.366;2022-08-14T09:06:03;29.80;88.10
20481;DHT22;10399;50.754;3.366;2022-08-14T09:08:51;30.00;87.00
20481;DHT22;10399;50.754;3.366;2022-08-14T09:11:18;30.50;85.70
20481;DHT22;10399;50.754;3.366;2022-08-14T09:13:49;31.20;83.20
20481;DHT22;10399;50.754;3.366;2022-08-14T09:16:21;31.50;82.20
20481;DHT22;10399;50.754;3.366;2022-08-14T09:18:50;31.50;82.40
20481;DHT22;10399;50.754;3.366;2022-08-14T09:21:19;31.60;79.80
20481;DHT22;10399;50.754;3.366;2022-08-14T09:23:53;31.90;80.00
20481;DHT22;10399;50.754;3.366;2022-08-14T09:26:42;31.70;78.70
20481;DHT22;10399;50.754;3.366;2022-08-14T09:29:15;31.90;80.00
20481;DHT22;10399;50.754;3.366;2022-08-14T09:31:44;32.60;79.90
20481;DHT22;10399;50.754;3.366;2022-08-14T09:40:41;33.60;78.00
20481;DHT22;10399;50.754;3.366;2022-08-14T09:43:55;33.70;77.40
20481;DHT22;10399;50.754;3.366;2022-08-14T09:46:14;33.40;77.10
20481;DHT22;10399;50.754;3.366;2022-08-14T09:49:03;33.50;76.30
20481;DHT22;10399;50.754;3.366;2022-08-14T09:51:32;33.70;75.50
20481;DHT22;10399;50.754;3.366;2022-08-14T09:54:11;33.70;74.20
20481;DHT22;10399;50.754;3.366;2022-08-14T09:56:50;33.50;73.50
20481;DHT22;10399;50.754;3.366;2022-08-14T09:59:25;33.60;73.30
20481;DHT22;10399;50.754;3.366;2022-08-14T10:01:57;33.80;73.40
20481;DHT22;10399;50.754;3.366;2022-08-14T10:04:26;33.40;72.70
20481;DHT22;10399;50.754;3.366;2022-08-14T10:07:03;32.80;73.00
20481;DHT22;10399;50.754;3.366;2022-08-14T10:09:31;32.60;73.40
20481;DHT22;10399;50.754;3.366;2022-08-14T10:12:01;32.60;73.60
20481;DHT22;10399;50.754;3.366;2022-08-14T10:14:33;32.50;74.20
20481;DHT22;10399;50.754;3.366;2022-08-14T10:17:04;32.50;74.20
20481;DHT22;10399;50.754;3.366;2022-08-14T10:19:34;32.40;74.10
20481;DHT22;10399;50.754;3.366;2022-08-14T10:22:12;32.30;74.10
20481;DHT22;10399;50.754;3.366;2022-08-14T10:25:12;32.10;73.20
20481;DHT22;10399;50.754;3.366;2022-08-14T10:27:41;32.00;74.70
20481;DHT22;10399;50.754;3.366;2022-08-14T10:30:17;31.90;74.00
20481;DHT22;10399;50.754;3.366;2022-08-14T10:32:51;31.90;73.80
20481;DHT22;10399;50.754;3.366;2022-08-14T10:35:21;31.90;73.10
20481;DHT22;10399;50.754;3.366;2022-08-14T10:37:59;32.00;71.90
20481;DHT22;10399;50.754;3.366;2022-08-14T10:40:31;32.00;72.10
20481;DHT22;10399;50.754;3.366;2022-08-14T10:43:17;32.50;70.00
20481;DHT22;10399;50.754;3.366;2022-08-14T10:45:59;32.90;68.70
20481;DHT22;10399;50.754;3.366;2022-08-14T10:49:01;33.20;67.90
20481;DHT22;10399;50.754;3.366;2022-08-14T10:51:31;33.60;66.50
20481;DHT22;10399;50.754;3.366;2022-08-14T10:54:08;33.80;65.50
20481;DHT22;10399;50.754;3.366;2022-08-14T10:56:57;34.00;65.40
20481;DHT22;10399;50.754;3.366;2022-08-14T10:59:25;34.80;65.60
20481;DHT22;10399;50.754;3.366;2022-08-14T11:02:01;35.10;64.00
20481;DHT22;10399;50.754;3.366;2022-08-14T11:04:28;35.90;64.40
20481;DHT22;10399;50.754;3.366;2022-08-14T11:06:57;36.20;62.00
20481;DHT22;10399;50.754;3.366;2022-08-14T11:09:24;36.50;61.10
20481;DHT22;10399;50.754;3.366;2022-08-14T11:11:55;37.10;61.00
20481;DHT22;10399;50.754;3.366;2022-08-14T11:14:56;37.00;60.40
20481;DHT22;10399;50.754;3.366;2022-08-14T11:17:30;36.30;60.00
20481;DHT22;10399;50.754;3.366;2022-08-14T11:19:59;36.80;61.20
20481;DHT22;10399;50.754;3.366;2022-08-14T11:22:28;37.20;60.00
20481;DHT22;10399;50.754;3.366;2022-08-14T11:25:19;37.40;60.10
20481;DHT22;10399;50.754;3.366;2022-08-14T11:27:51;36.90;58.90
20481;DHT22;10399;50.754;3.366;2022-08-14T11:30:23;36.60;59.50
20481;DHT22;10399;50.754;3.366;2022-08-14T11:33:10;36.70;59.80
20481;DHT22;10399;50.754;3.366;2022-08-14T11:35:38;36.60;59.60
20481;DHT22;10399;50.754;3.366;2022-08-14T11:38:14;36.20;59.80
20481;DHT22;10399;50.754;3.366;2022-08-14T11:40:43;36.00;60.20
20481;DHT22;10399;50.754;3.366;2022-08-14T11:43:14;35.70;60.90
20481;DHT22;10399;50.754;3.366;2022-08-14T11:45:45;35.40;60.70
20481;DHT22;10399;50.754;3.366;2022-08-14T11:51:17;35.90;60.80
20481;DHT22;10399;50.754;3.366;2022-08-14T11:53:55;35.70;60.10
20481;DHT22;10399;50.754;3.366;2022-08-14T11:56:23;35.80;59.20
20481;DHT22;10399;50.754;3.366;2022-08-14T11:58:56;35.70;60.90
20481;DHT22;10399;50.754;3.366;2022-08-14T12:01:28;35.80;60.00
20481;DHT22;10399;50.754;3.366;2022-08-14T12:04:17;35.90;59.10
20481;DHT22;10399;50.754;3.366;2022-08-14T12:06:59;35.50;59.80
20481;DHT22;10399;50.754;3.366;2022-08-14T12:09:35;35.60;59.90
20481;DHT22;10399;50.754;3.366;2022-08-14T12:12:17;35.90;59.60
20481;DHT22;10399;50.754;3.366;2022-08-14T12:15:03;35.90;59.20
20481;DHT22;10399;50.754;3.366;2022-08-14T12:17:46;36.00;60.90
20481;DHT22;10399;50.754;3.366;2022-08-14T12:20:17;36.00;58.70
20481;DHT22;10399;50.754;3.366;2022-08-14T12:22:59;35.90;58.20
20481;DHT22;10399;50.754;3.366;2022-08-14T12:25:27;35.90;59.20
20481;DHT22;10399;50.754;3.366;2022-08-14T12:27:55;36.10;59.20
20481;DHT22;10399;50.754;3.366;2022-08-14T12:33:28;36.20;58.80
20481;DHT22;10399;50.754;3.366;2022-08-14T12:36:00;36.10;59.00
20481;DHT22;10399;50.754;3.366;2022-08-14T12:38:40;36.00;58.30
20481;DHT22;10399;50.754;3.366;2022-08-14T12:41:15;36.00;58.20
20481;DHT22;10399;50.754;3.366;2022-08-14T12:43:51;36.40;58.00
20481;DHT22;10399;50.754;3.366;2022-08-14T12:46:21;36.70;58.60
20481;DHT22;10399;50.754;3.366;2022-08-14T12:48:56;36.70;58.40
20481;DHT22;10399;50.754;3.366;2022-08-14T12:51:26;36.70;59.70
20481;DHT22;10399;50.754;3.366;2022-08-14T12:53:57;36.30;58.30
20481;DHT22;10399;50.754;3.366;2022-08-14T12:56:26;36.70;58.30
20481;DHT22;10399;50.754;3.366;2022-08-14T12:59:01;36.70;58.90
20481;DHT22;10399;50.754;3.366;2022-08-14T13:01:30;37.00;57.60
20481;DHT22;10399;50.754;3.366;2022-08-14T13:04:17;37.20;58.10
20481;DHT22;10399;50.754;3.366;2022-08-14T13:06:46;36.90;57.20
20481;DHT22;10399;50.754;3.366;2022-08-14T13:09:18;37.00;57.80
20481;DHT22;10399;50.754;3.366;2022-08-14T13:11:51;36.90;57.00
20481;DHT22;10399;50.754;3.366;2022-08-14T13:14:40;37.20;57.00
20481;DHT22;10399;50.754;3.366;2022-08-14T13:17:15;37.10;56.90
20481;DHT22;10399;50.754;3.366;2022-08-14T13:19:44;36.90;56.80
20481;DHT22;10399;50.754;3.366;2022-08-14T13:22:13;37.10;57.40
20481;DHT22;10399;50.754;3.366;2022-08-14T13:24:59;37.00;58.10
20481;DHT22;10399;50.754;3.366;2022-08-14T13:27:32;37.00;57.00
20481;DHT22;10399;50.754;3.366;2022-08-14T13:30:08;37.20;56.70
20481;DHT22;10399;50.754;3.366;2022-08-14T13:32:51;37.20;56.80
20481;DHT22;10399;50.754;3.366;2022-08-14T13:35:19;37.60;57.00
20481;DHT22;10399;50.754;3.366;2022-08-14T13:37:49;37.70;57.60
20481;DHT22;10399;50.754;3.366;2022-08-14T13:40:20;37.50;57.20
20481;DHT22;10399;50.754;3.366;2022-08-14T13:42:53;37.20;57.10
20481;DHT22;10399;50.754;3.366;2022-08-14T13:45:24;37.10;56.70
20481;DHT22;10399;50.754;3.366;2022-08-14T13:48:13;37.30;58.20
20481;DHT22;10399;50.754;3.366;2022-08-14T13:51:03;37.30;56.10
20481;DHT22;10399;50.754;3.366;2022-08-14T13:53:44;37.20;57.10
20481;DHT22;10399;50.754;3.366;2022-08-14T13:56:36;37.00;56.50
20481;DHT22;10399;50.754;3.366;2022-08-14T13:59:04;37.00;56.40
20481;DHT22;10399;50.754;3.366;2022-08-14T14:01:33;36.50;56.30
20481;DHT22;10399;50.754;3.366;2022-08-14T14:04:15;36.10;57.00
20481;DHT22;10399;50.754;3.366;2022-08-14T14:06:46;35.90;57.70
20481;DHT22;10399;50.754;3.366;2022-08-14T14:09:19;35.60;58.60
20481;DHT22;10399;50.754;3.366;2022-08-14T14:11:46;35.20;58.90
20481;DHT22;10399;50.754;3.366;2022-08-14T14:14:20;35.00;58.60
20481;DHT22;10399;50.754;3.366;2022-08-14T14:17:09;34.80;59.00
20481;DHT22;10399;50.754;3.366;2022-08-14T14:19:40;34.70;59.50
20481;DHT22;10399;50.754;3.366;2022-08-14T14:22:10;34.80;59.40
20481;DHT22;10399;50.754;3.366;2022-08-14T14:24:59;35.00;59.80
20481;DHT22;10399;50.754;3.366;2022-08-14T14:27:27;35.00;59.30
20481;DHT22;10399;50.754;3.366;2022-08-14T14:30:10;35.00;58.70
20481;DHT22;10399;50.754;3.366;2022-08-14T14:32:58;34.90;58.60
20481;DHT22;10399;50.754;3.366;2022-08-14T14:35:33;34.80;58.60
20481;DHT22;10399;50.754;3.366;2022-08-14T14:38:06;34.90;59.70
20481;DHT22;10399;50.754;3.366;2022-08-14T14:40:35;35.00;59.20
20481;DHT22;10399;50.754;3.366;2022-08-14T14:43:21;35.40;59.00
20481;DHT22;10399;50.754;3.366;2022-08-14T14:45:49;35.30;59.20
20481;DHT22;10399;50.754;3.366;2022-08-14T14:48:18;35.50;58.70
20481;DHT22;10399;50.754;3.366;2022-08-14T14:50:48;35.70;58.50
20481;DHT22;10399;50.754;3.366;2022-08-14T14:53:19;35.90;58.60
20481;DHT22;10399;50.754;3.366;2022-08-14T14:55:47;36.00;58.60
20481;DHT22;10399;50.754;3.366;2022-08-14T14:58:35;35.90;58.20
20481;DHT22;10399;50.754;3.366;2022-08-14T15:01:04;35.90;57.50
20481;DHT22;10399;50.754;3.366;2022-08-14T15:03:37;35.70;58.20
20481;DHT22;10399;50.754;3.366;2022-08-14T15:06:07;35.70;58.50
20481;DHT22;10399;50.754;3.366;2022-08-14T15:08:38;35.80;58.70
20481;DHT22;10399;50.754;3.366;2022-08-14T15:11:25;35.40;58.40
20481;DHT22;10399;50.754;3.366;2022-08-14T15:13:56;35.10;58.50
20481;DHT22;10399;50.754;3.366;2022-08-14T15:16:23;35.30;58.50
20481;DHT22;10399;50.754;3.366;2022-08-14T15:18:50;35.20;57.80
20481;DHT22;10399;50.754;3.366;2022-08-14T15:21:18;35.10;58.00
20481;DHT22;10399;50.754;3.366;2022-08-14T15:23:45;35.10;58.40
20481;DHT22;10399;50.754;3.366;2022-08-14T15:26:14;35.20;58.70
20481;DHT22;10399;50.754;3.366;2022-08-14T15:29:02;35.30;58.50
20481;DHT22;10399;50.754;3.366;2022-08-14T15:31:33;35.30;57.80
20481;DHT22;10399;50.754;3.366;2022-08-14T15:34:02;35.40;58.80
20481;DHT22;10399;50.754;3.366;2022-08-14T15:37:00;35.40;58.20
20481;DHT22;10399;50.754;3.366;2022-08-14T15:39:28;35.70;58.20
20481;DHT22;10399;50.754;3.366;2022-08-14T15:42:02;35.70;58.10
20481;DHT22;10399;50.754;3.366;2022-08-14T15:44:43;35.40;57.80
20481;DHT22;10399;50.754;3.366;2022-08-14T15:47:26;35.10;58.20
20481;DHT22;10399;50.754;3.366;2022-08-14T15:49:58;35.20;58.40
20481;DHT22;10399;50.754;3.366;2022-08-14T15:52:31;35.00;58.00
20481;DHT22;10399;50.754;3.366;2022-08-14T15:55:05;34.80;58.50
20481;DHT22;10399;50.754;3.366;2022-08-14T15:57:34;34.70;58.70
20481;DHT22;10399;50.754;3.366;2022-08-14T16:00:02;34.80;58.50
20481;DHT22;10399;50.754;3.366;2022-08-14T16:03:08;34.70;58.50
20481;DHT22;10399;50.754;3.366;2022-08-14T16:05:43;34.80;58.30
20481;DHT22;10399;50.754;3.366;2022-08-14T16:08:12;34.50;58.30
20481;DHT22;10399;50.754;3.366;2022-08-14T16:10:56;34.50;59.20
20481;DHT22;10399;50.754;3.366;2022-08-14T16:13:23;34.50;58.70
20481;DHT22;10399;50.754;3.366;2022-08-14T16:19:03;34.40;59.00
20481;DHT22;10399;50.754;3.366;2022-08-14T16:21:38;34.40;58.80
20481;DHT22;10399;50.754;3.366;2022-08-14T16:24:05;34.30;59.50
20481;DHT22;10399;50.754;3.366;2022-08-14T16:26:32;34.00;59.10
20481;DHT22;10399;50.754;3.366;2022-08-14T16:29:01;34.10;59.30
20481;DHT22;10399;50.754;3.366;2022-08-14T16:31:30;34.20;59.40
20481;DHT22;10399;50.754;3.366;2022-08-14T16:34:04;34.10;59.30
20481;DHT22;10399;50.754;3.366;2022-08-14T16:36:53;34.10;59.20